Terminal Aerodrome Forecast
Issued by NWS

Home | Current Version | Previous Version | Text Only | Print | Product List | Glossary On
Versions: 1 2 3 4 5 6 7 8 9 10 11 12 13 14 15 16 17 18 19 20 21 22
000
FTUS44 KLZK 251100 RRA
TAFHRO
TAF
KHRO 251140Z 2512/2612 VRB05KT P6SM SCT015 BKN050
      TEMPO 2512/2515 5SM BR OVC015
     FM251500 17008KT P6SM BKN025 OVC050
     FM251800 18012KT P6SM BKN050 PROB30 2600/2606 3SM TSRA BR
      OVC025CB=

USA.gov is the U.S. government's official web portal to all federal, state and local government web resources and services.